createdAt,value
2018-12-20T00:00:19.788Z,12.90
2018-12-20T00:02:48.020Z,13.27
2018-12-20T00:05:16.110Z,10.37
2018-12-20T00:07:43.778Z,11.53
2018-12-20T00:10:11.549Z,11.97
2018-12-20T00:12:39.154Z,9.80
2018-12-20T00:15:06.784Z,11.50
2018-12-20T00:17:40.033Z,11.00
2018-12-20T00:20:07.690Z,8.80
2018-12-20T00:22:35.313Z,8.40
2018-12-20T00:25:03.348Z,10.17
2018-12-20T00:27:31.174Z,9.63
2018-12-20T00:29:58.808Z,8.70
2018-12-20T00:32:26.728Z,9.20
2018-12-20T00:34:54.405Z,10.50
2018-12-20T00:37:22.086Z,10.90
2018-12-20T00:39:49.814Z,15.27
2018-12-20T00:42:17.383Z,11.17
2018-12-20T00:44:45.157Z,12.27
2018-12-20T00:47:12.968Z,14.00
2018-12-20T00:49:40.623Z,10.73
2018-12-20T00:52:08.243Z,12.27
2018-12-20T00:54:36.113Z,16.03
2018-12-20T00:57:03.980Z,14.03
2018-12-20T00:59:31.749Z,14.00
2018-12-20T01:01:59.389Z,12.97
2018-12-20T01:04:26.962Z,14.23
2018-12-20T01:06:54.515Z,12.90
2018-12-20T01:09:22.376Z,13.67
2018-12-20T01:11:50.233Z,11.70
2018-12-20T01:14:17.765Z,13.53
2018-12-20T01:16:45.718Z,12.53
2018-12-20T01:19:13.593Z,13.77
2018-12-20T01:21:41.315Z,11.97
2018-12-20T01:24:09.469Z,12.33
2018-12-20T01:26:37.293Z,13.30
2018-12-20T01:29:05.096Z,13.23
2018-12-20T01:31:32.935Z,15.10
2018-12-20T01:34:00.741Z,13.30
2018-12-20T01:36:28.343Z,12.30
2018-12-20T01:38:55.916Z,15.33
2018-12-20T01:41:23.764Z,17.40
2018-12-20T01:43:51.389Z,15.50
2018-12-20T01:46:19.031Z,13.03
2018-12-20T01:48:46.714Z,17.30
2018-12-20T01:51:14.387Z,14.37
2018-12-20T01:53:42.046Z,14.30
2018-12-20T01:56:09.880Z,12.60
2018-12-20T01:58:37.820Z,14.57
2018-12-20T02:01:05.914Z,14.33
2018-12-20T02:03:33.681Z,13.60
2018-12-20T02:06:01.523Z,19.13
2018-12-20T02:08:29.089Z,14.33
2018-12-20T02:10:56.669Z,16.00
2018-12-20T02:13:24.414Z,12.93
2018-12-20T02:15:52.315Z,12.70
2018-12-20T02:18:20.002Z,11.53
2018-12-20T02:20:48.039Z,14.50
2018-12-20T02:23:15.655Z,14.67
2018-12-20T02:25:43.800Z,12.70
2018-12-20T02:28:11.929Z,10.87
2018-12-20T02:30:39.893Z,11.10
2018-12-20T02:33:07.793Z,10.07
2018-12-20T02:35:35.752Z,10.87
2018-12-20T02:38:03.445Z,16.37
2018-12-20T02:40:31.475Z,16.10
2018-12-20T02:42:59.272Z,11.37
2018-12-20T02:45:26.806Z,14.23
2018-12-20T02:47:54.343Z,12.27
2018-12-20T02:50:22.080Z,13.07
2018-12-20T02:52:50.171Z,11.33
2018-12-20T02:55:17.968Z,14.93
2018-12-20T02:57:45.736Z,12.60
2018-12-20T03:00:13.648Z,12.27
2018-12-20T03:02:41.654Z,12.13
2018-12-20T03:05:09.544Z,14.67
2018-12-20T03:07:37.298Z,14.90
2018-12-20T03:10:05.208Z,13.70
2018-12-20T03:12:32.873Z,13.50
2018-12-20T03:15:00.606Z,13.17
2018-12-20T03:17:28.176Z,15.73
2018-12-20T03:19:55.886Z,14.43
2018-12-20T03:22:23.910Z,12.57
2018-12-20T03:24:51.578Z,13.40
2018-12-20T03:27:19.359Z,11.40
2018-12-20T03:29:47.152Z,11.17
2018-12-20T03:32:14.772Z,13.37
2018-12-20T03:34:42.316Z,10.63
2018-12-20T03:37:10.089Z,13.43
2018-12-20T03:39:37.789Z,15.33
2018-12-20T03:42:05.457Z,10.90
2018-12-20T03:44:33.196Z,12.03
2018-12-20T03:47:01.099Z,12.33
2018-12-20T03:49:28.713Z,10.37
2018-12-20T03:51:56.694Z,10.37
2018-12-20T03:54:24.488Z,10.80
2018-12-20T03:56:52.264Z,10.10
2018-12-20T03:59:20.156Z,11.60
2018-12-20T04:01:48.215Z,9.63
2018-12-20T04:04:16.054Z,11.03
2018-12-20T04:06:43.993Z,11.10
2018-12-20T04:09:11.741Z,12.73
2018-12-20T04:11:39.804Z,12.13
2018-12-20T04:14:07.418Z,15.73
2018-12-20T04:16:35.119Z,10.30
2018-12-20T04:19:03.016Z,10.23
2018-12-20T04:21:30.658Z,11.27
2018-12-20T04:23:58.556Z,14.10
2018-12-20T04:26:26.608Z,12.20
2018-12-20T04:28:54.442Z,12.67
2018-12-20T04:31:22.278Z,12.30
2018-12-20T04:33:50.118Z,13.97
2018-12-20T04:36:18.001Z,11.23
2018-12-20T04:38:45.711Z,10.63
2018-12-20T04:41:13.607Z,12.00
2018-12-20T04:43:41.681Z,13.93
2018-12-20T04:46:09.619Z,17.53
2018-12-20T04:48:37.621Z,13.03
2018-12-20T04:51:05.332Z,13.53
2018-12-20T04:53:32.998Z,12.77
2018-12-20T04:56:00.957Z,10.87
2018-12-20T04:58:28.842Z,14.33
2018-12-20T05:00:56.968Z,15.17
2018-12-20T05:03:25.522Z,14.20
2018-12-20T05:05:53.275Z,13.20
2018-12-20T05:08:21.209Z,14.23
2018-12-20T05:10:48.879Z,13.77
2018-12-20T05:13:16.580Z,12.93
2018-12-20T05:15:44.332Z,10.87
2018-12-20T05:18:12.224Z,11.90
2018-12-20T05:20:39.899Z,15.30
2018-12-20T05:23:07.695Z,12.13
2018-12-20T05:25:35.773Z,10.07
2018-12-20T05:28:03.695Z,10.13
2018-12-20T05:30:31.325Z,12.40
2018-12-20T05:32:59.363Z,10.17
2018-12-20T05:35:27.429Z,11.87
2018-12-20T05:37:55.204Z,9.63
2018-12-20T05:40:22.848Z,9.37
2018-12-20T05:42:50.609Z,11.20
2018-12-20T05:45:18.494Z,13.70
2018-12-20T05:47:46.792Z,12.47
2018-12-20T05:50:14.799Z,10.97
2018-12-20T05:52:42.393Z,11.23
2018-12-20T05:55:10.025Z,8.93
2018-12-20T05:57:37.672Z,8.70
2018-12-20T06:00:07.961Z,9.53
2018-12-20T06:02:35.670Z,8.40
2018-12-20T06:05:04.954Z,7.73
2018-12-20T06:07:32.710Z,7.53
2018-12-20T06:10:00.252Z,10.53
2018-12-20T06:12:28.109Z,7.07
2018-12-20T06:14:56.163Z,10.57
2018-12-20T06:17:23.836Z,6.50
2018-12-20T06:19:52.794Z,5.30
2018-12-20T06:22:20.752Z,6.63
2018-12-20T06:24:48.350Z,7.43
2018-12-20T06:27:15.949Z,10.60
2018-12-20T06:29:43.723Z,7.73
2018-12-20T06:32:11.283Z,6.37
2018-12-20T06:34:39.289Z,7.87
2018-12-20T06:37:06.833Z,10.87
2018-12-20T06:39:34.783Z,8.57
2018-12-20T06:42:02.295Z,6.53
2018-12-20T06:44:30.408Z,5.27
2018-12-20T06:46:58.072Z,5.17
2018-12-20T06:49:25.928Z,4.97
2018-12-20T06:51:53.450Z,3.97
2018-12-20T06:54:21.154Z,4.03
2018-12-20T06:56:48.695Z,5.40
2018-12-20T06:59:16.403Z,4.50
2018-12-20T07:01:43.985Z,3.97
2018-12-20T07:04:11.689Z,7.33
2018-12-20T07:06:39.828Z,4.80
2018-12-20T07:09:07.648Z,5.77
2018-12-20T07:11:35.166Z,6.33
2018-12-20T07:14:02.751Z,4.13
2018-12-20T07:16:30.621Z,7.63
2018-12-20T07:18:58.178Z,5.27
2018-12-20T07:21:25.711Z,5.77
2018-12-20T07:23:53.255Z,4.17
2018-12-20T07:26:20.951Z,4.50
2018-12-20T07:28:48.725Z,5.17
2018-12-20T07:31:16.455Z,5.17
2018-12-20T07:33:44.149Z,6.03
2018-12-20T07:36:11.764Z,9.67
2018-12-20T07:38:39.275Z,2.07
2018-12-20T07:41:06.828Z,3.87
2018-12-20T07:43:34.371Z,2.40
2018-12-20T07:46:01.926Z,4.77
2018-12-20T07:48:32.227Z,3.50
2018-12-20T07:50:59.114Z,8.47
2018-12-20T07:53:26.669Z,6.37
2018-12-20T07:55:54.200Z,7.40
2018-12-20T07:58:21.985Z,6.87
2018-12-20T08:00:49.982Z,5.70
2018-12-20T08:03:17.663Z,4.80
2018-12-20T08:05:45.399Z,3.07
2018-12-20T08:08:12.960Z,4.30
2018-12-20T08:10:40.511Z,2.50
2018-12-20T08:13:08.226Z,5.00
2018-12-20T08:15:35.951Z,4.23
2018-12-20T08:18:03.580Z,2.77
2018-12-20T08:20:31.115Z,4.20
2018-12-20T08:22:58.901Z,4.40
2018-12-20T08:25:26.575Z,2.20
2018-12-20T08:27:54.159Z,1.90
2018-12-20T08:30:21.694Z,2.10
2018-12-20T08:32:49.426Z,3.23
2018-12-20T08:35:16.981Z,4.47
2018-12-20T08:37:44.550Z,5.00
2018-12-20T08:40:12.256Z,2.53
2018-12-20T08:42:39.895Z,2.23
2018-12-20T08:45:07.588Z,2.13
2018-12-20T08:47:35.453Z,2.33
2018-12-20T08:50:03.609Z,2.83
2018-12-20T08:52:31.178Z,3.33
2018-12-20T08:54:58.734Z,3.43
2018-12-20T08:57:26.284Z,3.00
2018-12-20T08:59:53.833Z,2.17
2018-12-20T09:02:21.384Z,2.90
2018-12-20T09:04:48.926Z,2.67
2018-12-20T09:07:16.549Z,3.33
2018-12-20T09:09:44.605Z,4.60
2018-12-20T09:12:12.469Z,3.73
2018-12-20T09:14:40.195Z,4.53
2018-12-20T09:17:07.816Z,3.43
2018-12-20T09:19:35.431Z,3.17
2018-12-20T09:22:10.363Z,3.87
2018-12-20T09:24:38.038Z,3.10
2018-12-20T09:27:05.785Z,5.37
2018-12-20T09:29:33.315Z,10.33
2018-12-20T09:32:00.888Z,4.67
2018-12-20T09:34:28.660Z,5.90
2018-12-20T09:36:56.808Z,5.53
2018-12-20T09:39:24.590Z,3.83
2018-12-20T09:41:52.148Z,4.83
2018-12-20T09:44:19.665Z,4.47
2018-12-20T09:46:47.384Z,7.00
2018-12-20T09:49:14.899Z,7.03
2018-12-20T09:51:42.466Z,6.10
2018-12-20T09:54:10.129Z,3.83
2018-12-20T09:56:37.781Z,5.10
2018-12-20T09:59:05.612Z,3.13
2018-12-20T10:01:33.134Z,6.07
2018-12-20T10:04:00.674Z,4.63
2018-12-20T10:06:28.281Z,4.50
2018-12-20T10:08:55.811Z,4.13
2018-12-20T10:11:23.731Z,3.90
2018-12-20T10:13:51.270Z,2.67
2018-12-20T10:16:18.912Z,4.33
2018-12-20T10:18:46.470Z,3.27
2018-12-20T10:21:14.141Z,2.40
2018-12-20T10:23:42.245Z,3.65
2018-12-20T10:26:09.906Z,3.37
2018-12-20T10:28:37.489Z,3.23
2018-12-20T10:31:05.093Z,2.27
2018-12-20T10:33:32.801Z,1.90
2018-12-20T10:36:00.611Z,2.27
2018-12-20T10:38:28.484Z,3.43
2018-12-20T10:40:56.029Z,2.13
2018-12-20T10:43:23.554Z,32.50
2018-12-20T10:45:51.205Z,29.60
2018-12-20T10:48:18.772Z,5.27
2018-12-20T10:50:46.349Z,1.90
2018-12-20T10:53:13.855Z,3.00
2018-12-20T10:55:42.250Z,1.47
2018-12-20T10:58:10.015Z,2.50
2018-12-20T11:00:43.081Z,2.53
2018-12-20T11:03:16.160Z,1.43
2018-12-20T11:05:49.221Z,3.27
2018-12-20T11:08:23.385Z,2.00
2018-12-20T11:10:52.913Z,2.53
2018-12-20T11:13:25.231Z,2.13
2018-12-20T11:15:53.094Z,1.50
2018-12-20T11:18:21.113Z,3.37
2018-12-20T11:20:48.630Z,2.83
2018-12-20T11:23:16.326Z,1.27
2018-12-20T11:25:44.252Z,1.87
2018-12-20T11:28:12.064Z,2.03
2018-12-20T11:30:39.587Z,2.67
2018-12-20T11:33:07.129Z,2.80
2018-12-20T11:35:34.914Z,2.80
2018-12-20T11:38:02.455Z,1.73
2018-12-20T11:40:29.960Z,2.70
2018-12-20T11:42:57.696Z,2.13
2018-12-20T11:45:25.205Z,1.60
2018-12-20T11:47:52.781Z,2.70
2018-12-20T11:50:20.310Z,1.57
2018-12-20T11:52:47.865Z,3.83
2018-12-20T11:55:15.387Z,2.47
2018-12-20T11:57:43.217Z,2.73
2018-12-20T12:00:11.040Z,1.33
2018-12-20T12:02:39.122Z,2.00
2018-12-20T12:05:06.631Z,5.60
2018-12-20T12:07:34.546Z,5.07
2018-12-20T12:10:02.246Z,1.20
2018-12-20T12:12:29.770Z,1.43
2018-12-20T12:14:57.356Z,2.27
2018-12-20T12:17:24.909Z,1.30
2018-12-20T12:19:52.654Z,1.40
2018-12-20T12:22:20.700Z,1.43
2018-12-20T12:24:48.290Z,2.47
2018-12-20T12:27:15.991Z,1.13
2018-12-20T12:29:43.909Z,1.03
2018-12-20T12:32:11.466Z,1.43
2018-12-20T12:34:39.273Z,2.33
2018-12-20T12:37:06.965Z,0.97
2018-12-20T12:39:34.780Z,2.30
2018-12-20T12:42:02.586Z,1.53
2018-12-20T12:44:30.299Z,3.80
2018-12-20T12:46:57.844Z,4.20
2018-12-20T12:49:25.464Z,1.60
2018-12-20T12:51:53.560Z,2.30
2018-12-20T12:54:21.260Z,1.47
2018-12-20T12:56:48.771Z,1.50
2018-12-20T12:59:16.568Z,3.40
2018-12-20T13:01:44.249Z,2.43
2018-12-20T13:04:11.827Z,1.80
2018-12-20T13:06:39.635Z,4.33
2018-12-20T13:09:07.225Z,4.50
2018-12-20T13:11:35.020Z,1.53
2018-12-20T13:14:02.648Z,1.97
2018-12-20T13:16:30.295Z,2.10
2018-12-20T13:18:58.221Z,1.50
2018-12-20T13:21:25.764Z,1.57
2018-12-20T13:23:53.594Z,5.33
2018-12-20T13:26:21.355Z,1.77
2018-12-20T13:28:49.036Z,4.00
2018-12-20T13:31:16.630Z,4.90
2018-12-20T13:33:45.266Z,3.37
2018-12-20T13:36:12.810Z,2.20
2018-12-20T13:38:40.352Z,2.17
2018-12-20T13:41:08.033Z,2.43
2018-12-20T13:43:35.724Z,3.07
2018-12-20T13:46:03.256Z,2.83
2018-12-20T13:48:30.846Z,2.80
2018-12-20T13:50:58.668Z,3.27
2018-12-20T13:53:26.377Z,2.17
2018-12-20T13:55:54.303Z,1.60
2018-12-20T13:58:22.291Z,5.13
2018-12-20T14:00:50.349Z,8.90
2018-12-20T14:03:18.225Z,4.27
2018-12-20T14:05:46.669Z,5.90
2018-12-20T14:08:14.584Z,1.80
2018-12-20T14:10:42.504Z,1.87
2018-12-20T14:13:10.600Z,3.30
2018-12-20T14:15:38.178Z,5.33
2018-12-20T14:18:06.024Z,3.20
2018-12-20T14:20:33.754Z,1.40
2018-12-20T14:23:01.439Z,1.20
2018-12-20T14:25:29.039Z,1.97
2018-12-20T14:27:56.910Z,1.60
2018-12-20T14:30:24.511Z,5.70
2018-12-20T14:32:52.289Z,2.03
2018-12-20T14:35:19.911Z,1.73
2018-12-20T14:37:47.464Z,1.60
2018-12-20T14:40:15.029Z,0.97
2018-12-20T14:42:42.693Z,1.37
2018-12-20T14:45:10.425Z,1.00
2018-12-20T14:47:38.231Z,2.50
2018-12-20T14:50:06.880Z,6.97
2018-12-20T14:52:34.513Z,1.00
2018-12-20T14:55:02.366Z,2.13
2018-12-20T14:57:30.006Z,1.47
2018-12-20T14:59:57.816Z,1.03
2018-12-20T15:02:25.691Z,3.90
2018-12-20T15:04:53.296Z,1.13
2018-12-20T15:07:21.113Z,1.57
2018-12-20T15:09:48.779Z,2.27
2018-12-20T15:12:16.694Z,4.27
2018-12-20T15:14:44.308Z,2.50
2018-12-20T15:17:12.054Z,2.33
2018-12-20T15:19:39.835Z,5.97
2018-12-20T15:22:07.409Z,1.63
2018-12-20T15:24:35.029Z,2.70
2018-12-20T15:27:02.654Z,1.50
2018-12-20T15:29:30.410Z,2.37
2018-12-20T15:31:58.020Z,2.07
2018-12-20T15:34:25.828Z,3.10
2018-12-20T15:36:53.385Z,2.70
2018-12-20T15:39:21.259Z,6.00
2018-12-20T15:41:49.035Z,2.87
2018-12-20T15:44:16.604Z,2.50
2018-12-20T15:46:44.406Z,2.83
2018-12-20T15:49:12.254Z,1.60
2018-12-20T15:51:39.808Z,6.10
2018-12-20T15:54:07.684Z,2.70
2018-12-20T15:56:35.235Z,3.73
2018-12-20T15:59:02.750Z,2.70
2018-12-20T16:01:30.333Z,5.57
2018-12-20T16:03:57.921Z,5.73
2018-12-20T16:06:25.471Z,3.60
2018-12-20T16:08:53.257Z,1.53
2018-12-20T16:11:21.061Z,2.17
2018-12-20T16:13:49.104Z,4.37
2018-12-20T16:16:17.074Z,2.07
2018-12-20T16:18:45.258Z,3.20
2018-12-20T16:21:12.925Z,4.30
2018-12-20T16:23:40.690Z,4.33
2018-12-20T16:26:08.464Z,3.97
2018-12-20T16:28:36.185Z,3.90
2018-12-20T16:31:04.030Z,3.37
2018-12-20T16:33:31.589Z,4.30
2018-12-20T16:35:59.320Z,13.33
2018-12-20T16:38:26.854Z,6.87
2018-12-20T16:40:54.570Z,5.67
2018-12-20T16:43:22.101Z,4.43
2018-12-20T16:45:49.863Z,4.33
2018-12-20T16:48:19.451Z,3.83
2018-12-20T16:50:47.030Z,5.77
2018-12-20T16:53:15.201Z,2.80
2018-12-20T16:55:42.727Z,3.87
2018-12-20T16:58:10.309Z,2.40
2018-12-20T17:00:37.936Z,2.53
2018-12-20T17:03:05.455Z,2.53
2018-12-20T17:05:33.019Z,3.43
2018-12-20T17:08:00.862Z,4.30
2018-12-20T17:10:28.575Z,3.23
2018-12-20T17:12:56.183Z,2.07
2018-12-20T17:15:23.725Z,1.87
2018-12-20T17:17:51.307Z,2.80
2018-12-20T17:20:19.172Z,2.57
2018-12-20T17:22:46.886Z,2.63
2018-12-20T17:25:14.593Z,4.57
2018-12-20T17:27:42.140Z,6.50
2018-12-20T17:30:09.685Z,12.27
2018-12-20T17:32:37.384Z,4.90
2018-12-20T17:35:05.050Z,3.53
2018-12-20T17:37:32.799Z,4.17
2018-12-20T17:40:00.374Z,4.23
2018-12-20T17:42:29.900Z,3.60
2018-12-20T17:44:57.580Z,4.33
2018-12-20T17:47:25.624Z,5.37
2018-12-20T17:49:53.268Z,4.43
2018-12-20T17:52:20.815Z,5.80
2018-12-20T17:54:48.414Z,4.87
2018-12-20T17:57:16.192Z,4.23
2018-12-20T17:59:43.755Z,4.67
2018-12-20T18:02:11.475Z,6.13
2018-12-20T18:04:39.254Z,9.07
2018-12-20T18:07:07.163Z,6.07
2018-12-20T18:09:34.694Z,4.57
2018-12-20T18:12:02.395Z,2.77
2018-12-20T18:14:29.912Z,5.90
2018-12-20T18:16:57.589Z,6.30
2018-12-20T18:19:25.145Z,6.27
2018-12-20T18:21:52.684Z,3.57
2018-12-20T18:24:20.284Z,4.60
2018-12-20T18:26:48.033Z,5.57
2018-12-20T18:29:15.602Z,4.23
2018-12-20T18:31:43.144Z,6.80
2018-12-20T18:34:10.955Z,3.13
2018-12-20T18:36:38.794Z,3.10
2018-12-20T18:39:06.514Z,4.27
2018-12-20T18:41:34.166Z,4.67
2018-12-20T18:44:01.734Z,5.47
2018-12-20T18:46:29.308Z,4.27
2018-12-20T18:48:56.906Z,4.47
2018-12-20T18:51:24.503Z,6.73
2018-12-20T18:53:52.020Z,4.50
2018-12-20T18:56:19.747Z,6.37
2018-12-20T18:58:47.585Z,3.00
2018-12-20T19:01:15.137Z,4.83
2018-12-20T19:03:43.023Z,6.50
2018-12-20T19:06:10.594Z,3.63
2018-12-20T19:08:38.629Z,3.20
2018-12-20T19:11:06.160Z,5.77
2018-12-20T19:13:33.711Z,2.50
2018-12-20T19:16:01.507Z,2.43
2018-12-20T19:18:29.101Z,3.00
2018-12-20T19:20:56.725Z,3.60
2018-12-20T19:23:24.324Z,2.40
2018-12-20T19:25:52.026Z,4.20
2018-12-20T19:28:19.824Z,3.13
2018-12-20T19:30:47.396Z,4.13
2018-12-20T19:33:15.172Z,2.57
2018-12-20T19:35:42.999Z,4.80
2018-12-20T19:38:10.520Z,3.93
2018-12-20T19:40:38.090Z,3.20
2018-12-20T19:43:05.655Z,3.20
2018-12-20T19:45:33.204Z,2.73
2018-12-20T19:48:00.949Z,4.50
2018-12-20T19:50:28.656Z,5.53
2018-12-20T19:52:56.256Z,3.40
2018-12-20T19:55:23.875Z,2.83
2018-12-20T19:57:51.695Z,2.47
2018-12-20T20:00:19.310Z,2.70
2018-12-20T20:02:47.135Z,5.30
2018-12-20T20:05:14.714Z,3.83
2018-12-20T20:07:42.410Z,5.10
2018-12-20T20:10:09.969Z,2.55
2018-12-20T20:12:37.514Z,3.80
2018-12-20T20:15:16.049Z,5.03
2018-12-20T20:17:37.048Z,4.10
2018-12-20T20:20:13.528Z,2.73
2018-12-20T20:22:35.010Z,2.47
2018-12-20T20:25:03.142Z,4.33
2018-12-20T20:27:30.665Z,3.77
2018-12-20T20:29:58.320Z,4.77
2018-12-20T20:32:26.101Z,4.53
2018-12-20T20:34:53.769Z,5.83
2018-12-20T20:37:21.509Z,5.17
2018-12-20T20:39:49.104Z,3.90
2018-12-20T20:42:16.865Z,4.20
2018-12-20T20:44:44.425Z,4.20
2018-12-20T20:47:12.066Z,3.17
2018-12-20T20:49:39.887Z,3.83
2018-12-20T20:52:07.605Z,2.93
2018-12-20T20:54:35.436Z,5.10
2018-12-20T20:57:03.020Z,5.03
2018-12-20T20:59:30.794Z,3.80
2018-12-20T21:01:58.318Z,8.90
2018-12-20T21:04:25.985Z,5.80
2018-12-20T21:06:53.681Z,3.67
2018-12-20T21:09:21.255Z,3.57
2018-12-20T21:11:48.820Z,2.43
2018-12-20T21:14:16.555Z,3.50
2018-12-20T21:16:44.281Z,5.80
2018-12-20T21:19:11.913Z,3.97
2018-12-20T21:21:39.486Z,4.53
2018-12-20T21:24:07.099Z,5.57
2018-12-20T21:26:34.671Z,2.67
2018-12-20T21:29:02.290Z,6.17
2018-12-20T21:31:30.207Z,3.87
2018-12-20T21:33:57.835Z,3.40
2018-12-20T21:36:25.694Z,3.47
2018-12-20T21:38:53.276Z,3.43
2018-12-20T21:41:20.791Z,4.97
2018-12-20T21:43:48.599Z,3.93
2018-12-20T21:46:16.186Z,3.77
2018-12-20T21:48:43.715Z,3.70
2018-12-20T21:51:11.241Z,3.23
2018-12-20T21:53:38.901Z,2.70
2018-12-20T21:56:06.415Z,2.07
2018-12-20T21:58:34.235Z,1.90
2018-12-20T22:01:01.817Z,2.17
2018-12-20T22:03:29.596Z,2.43
2018-12-20T22:05:57.130Z,1.57
2018-12-20T22:08:25.080Z,3.10
2018-12-20T22:10:52.914Z,2.97
2018-12-20T22:13:20.569Z,3.47
2018-12-20T22:15:48.187Z,2.93
2018-12-20T22:18:16.114Z,3.13
2018-12-20T22:20:47.206Z,2.00
2018-12-20T22:23:13.289Z,2.97
2018-12-20T22:25:40.825Z,5.93
2018-12-20T22:28:08.403Z,4.00
2018-12-20T22:30:35.930Z,4.07
2018-12-20T22:33:03.682Z,3.20
2018-12-20T22:35:31.236Z,3.67
2018-12-20T22:37:58.795Z,7.90
2018-12-20T22:40:26.394Z,4.03
2018-12-20T22:42:53.957Z,4.73
2018-12-20T22:45:21.534Z,6.80
2018-12-20T22:47:49.207Z,3.83
2018-12-20T22:50:16.854Z,6.73
2018-12-20T22:52:44.401Z,3.20
2018-12-20T22:55:12.004Z,3.53
2018-12-20T22:57:39.562Z,3.17
2018-12-20T23:00:09.448Z,4.63
2018-12-20T23:02:36.985Z,3.00
2018-12-20T23:05:04.969Z,2.50
2018-12-20T23:07:32.505Z,2.60
2018-12-20T23:10:00.009Z,2.27
2018-12-20T23:12:28.059Z,1.97
2018-12-20T23:14:55.635Z,6.57
2018-12-20T23:17:23.256Z,5.23
2018-12-20T23:19:51.185Z,5.30
2018-12-20T23:22:18.743Z,6.60
2018-12-20T23:24:46.299Z,6.23
2018-12-20T23:27:13.909Z,5.00
2018-12-20T23:29:41.572Z,5.67
2018-12-20T23:32:09.153Z,4.07
2018-12-20T23:34:37.167Z,6.60
2018-12-20T23:37:04.815Z,7.43
2018-12-20T23:39:32.698Z,8.80
2018-12-20T23:42:00.229Z,4.13
2018-12-20T23:44:27.747Z,10.17
2018-12-20T23:46:55.295Z,5.67
2018-12-20T23:49:22.829Z,4.97
2018-12-20T23:51:50.616Z,5.43
2018-12-20T23:54:18.541Z,5.87
2018-12-20T23:56:46.088Z,10.13
2018-12-20T23:59:13.911Z,9.30
